Aeroporto :
LOGIN :

Iscrizione | Disclaimer

   EN    FR    IT 

 










Sommario :    VFR   VFR Marginale   IFR   IFR Intensivo   IFR Molto Intensivo
Visibilità : 
Base nubi : 
>= 8 km
>= 3000ft
5 / 8 km
1000 / 3000 ft
1500m / 5 km
500 / 1000 ft
800 / 1500m
200 / 500 ft
< 800m
< 200 ft
Simboli :   Temporali  Nebbia  Neve Forte  Precipitazioni Forti  Vento > 20 kt
SIGMETs :   Varie  Temporali  Ghiacco  Turbolenza  Onda orograficha  Ceneri Vulcaniche






- Altitudine del aeroporto : 157 ft
- Codice IATA : SXF


EDDB - Berlin Schönefeld

ULTIMO METAR :
  • 170950Z 05009KT 7000 -RA SCT031 05/04 Q1013 NOSIG

METARs OBSOLETI :
  • 170920Z 05009KT 6000 -RA SCT030 04/04 Q1014 NOSIG
  • 170850Z 04008KT 6000 -RA SCT030 04/03 Q1014 NOSIG
  • 170820Z 03008KT 6000 -RA SCT027 03/02 Q1014 NOSIG
  • 170750Z 03006KT 6000 -RA SCT027 03/02 Q1015 NOSIG
  • 170720Z 03006KT 6000 FEW027 02/01 Q1015 TEMPO 4000 BR

TAF TAF EDDB
Valido dal 17 a 06 ore il 18 a 06 ore UTC


170500Z 1706/1806 06006KT 6000 SCT014
BECMG 1706/1710 06011KT 3500 -RADZ BKN006
TEMPO 1708/1713 1500 DZRA BKN003
BECMG 1711/1715 6000 SCT003 BKN020
TEMPO 1713/1718 2000 -DZ BKN003
BECMG 1718/1722 1000 BCFG BKN001
BECMG 1722/1724 12009KT 4000 BR SCT020 BKN045



MetMap, La meteo Aeronautica in un colpo d'occhio ! - Copyright ORBIFLY Dicembre 2007 - Disclaimer

ORBIFLY MET'MAP TEAM :

Programmazione e sviluppo : Alexandra Zaïnal
Concezione e sviluppo : Baudouin d'Aumeries
Co-Programmazione e sviluppo : Marc-Olivier Méhu
Supporto tecnico e logistico : Manuel Goepfert
Aiuto per la traduzione : Arnaldo La Scala

Contatto : metmap@orbifly.com




FONTI E CREDITI :

   NOAA